TimeEDT,TemperatureF,Dew PointF,Humidity,Sea Level PressureIn,VisibilityMPH,Wind Direction,Wind SpeedMPH,Gust SpeedMPH,PrecipitationIn,Events,Conditions,WindDirDegrees,DateUTC
12:12 AM,48.2,46.4,93,30.03,10.0,Calm,Calm,-,N/A,,Partly Cloudy,0,2013-09-25 04:12:00
12:51 AM,48.0,46.0,93,30.02,10.0,Calm,Calm,-,N/A,,Clear,0,2013-09-25 04:51:00
1:31 AM,48.2,46.4,93,30.01,2.5,Calm,Calm,-,N/A,,Scattered Clouds,0,2013-09-25 05:31:00
1:35 AM,48.2,46.4,93,30.01,1.8,Calm,Calm,-,N/A,,Mostly Cloudy,0,2013-09-25 05:35:00
1:49 AM,48.2,46.4,93,30.01,0.8,Calm,Calm,-,N/A,,Mist,0,2013-09-25 05:49:00
1:51 AM,48.9,46.9,93,30.01,0.8,Calm,Calm,-,N/A,,Mist,0,2013-09-25 05:51:00
2:11 AM,48.2,48.2,100,30.01,1.2,Calm,Calm,-,N/A,,Overcast,0,2013-09-25 06:11:00
2:51 AM,50.0,48.0,93,30.00,1.2,Calm,Calm,-,N/A,,Overcast,0,2013-09-25 06:51:00
2:58 AM,48.2,48.2,100,30.01,3.0,Calm,Calm,-,N/A,,Overcast,0,2013-09-25 06:58:00
3:24 AM,48.2,48.2,100,30.00,1.8,Calm,Calm,-,N/A,,Overcast,0,2013-09-25 07:24:00
3:37 AM,48.2,46.4,93,29.99,3.0,Calm,Calm,-,N/A,,Overcast,0,2013-09-25 07:37:00
3:51 AM,48.9,46.9,93,29.99,6.0,Calm,Calm,-,N/A,,Overcast,0,2013-09-25 07:51:00
4:35 AM,48.2,48.2,100,29.97,1.8,Calm,Calm,-,N/A,,Overcast,0,2013-09-25 08:35:00
4:51 AM,48.9,48.0,97,29.97,1.0,Calm,Calm,-,N/A,,Mist,0,2013-09-25 08:51:00
4:59 AM,48.2,48.2,100,29.97,0.8,Calm,Calm,-,N/A,,Mist,0,2013-09-25 08:59:00
5:51 AM,48.9,48.0,97,29.97,0.5,Calm,Calm,-,N/A,Fog,Fog,0,2013-09-25 09:51:00
6:51 AM,48.9,46.9,93,29.98,0.8,Calm,Calm,-,N/A,,Mist,0,2013-09-25 10:51:00
6:59 AM,48.2,46.4,93,29.97,1.2,Calm,Calm,-,N/A,,Overcast,0,2013-09-25 10:59:00
7:25 AM,48.2,48.2,100,29.98,0.5,Calm,Calm,-,N/A,Fog,Fog,0,2013-09-25 11:25:00
7:49 AM,50.0,48.2,94,29.99,0.2,Calm,Calm,-,N/A,Fog,Fog,0,2013-09-25 11:49:00
7:51 AM,50.0,48.0,93,30.01,0.5,Calm,Calm,-,N/A,Fog,Fog,0,2013-09-25 11:51:00
8:32 AM,50.0,48.2,94,29.99,1.8,Calm,Calm,-,N/A,,Overcast,0,2013-09-25 12:32:00
8:38 AM,50.0,48.2,94,30.00,3.0,WSW,4.6,-,N/A,,Overcast,240,2013-09-25 12:38:00
8:48 AM,50.0,48.2,94,30.00,1.8,Calm,Calm,-,N/A,,Overcast,0,2013-09-25 12:48:00
8:51 AM,50.0,50.0,100,30.01,1.2,Calm,Calm,-,N/A,,Overcast,0,2013-09-25 12:51:00
9:34 AM,51.8,50.0,94,30.00,3.0,Calm,Calm,-,N/A,,Overcast,0,2013-09-25 13:34:00
9:51 AM,52.0,51.1,97,30.01,2.5,Calm,Calm,-,N/A,,Overcast,0,2013-09-25 13:51:00
9:59 AM,53.6,51.8,94,29.99,8.0,Calm,Calm,-,N/A,,Overcast,0,2013-09-25 13:59:00
10:36 AM,53.6,51.8,94,30.00,2.0,Calm,Calm,-,N/A,,Overcast,0,2013-09-25 14:36:00
10:47 AM,53.6,51.8,94,29.99,6.0,Calm,Calm,-,N/A,,Overcast,0,2013-09-25 14:47:00
10:51 AM,54.0,52.0,93,30.01,8.0,Calm,Calm,-,N/A,,Overcast,0,2013-09-25 14:51:00
11:28 AM,55.4,53.6,94,29.98,10.0,West,3.5,-,N/A,,Scattered Clouds,270,2013-09-25 15:28:00
11:51 AM,59.0,54.0,83,29.99,10.0,Calm,Calm,-,N/A,,Clear,0,2013-09-25 15:51:00
12:51 PM,63.0,55.0,75,29.97,10.0,Calm,Calm,-,N/A,,Clear,0,2013-09-25 16:51:00
1:51 PM,70.0,57.0,63,29.95,10.0,SE,4.6,-,N/A,,Clear,140,2013-09-25 17:51:00
2:51 PM,70.0,54.0,57,29.93,10.0,Calm,Calm,-,N/A,,Clear,0,2013-09-25 18:51:00
3:51 PM,71.1,55.0,57,29.92,10.0,Calm,Calm,-,N/A,,Clear,0,2013-09-25 19:51:00
4:51 PM,71.1,54.0,55,29.91,10.0,Calm,Calm,-,N/A,,Clear,0,2013-09-25 20:51:00
5:51 PM,69.1,57.9,68,29.92,10.0,Calm,Calm,-,N/A,,Mostly Cloudy,0,2013-09-25 21:51:00
6:51 PM,64.9,57.9,78,29.92,10.0,Calm,Calm,-,N/A,,Mostly Cloudy,0,2013-09-25 22:51:00
7:51 PM,63.0,57.9,84,29.93,10.0,Calm,Calm,-,N/A,,Overcast,0,2013-09-25 23:51:00
8:51 PM,61.0,57.0,87,29.95,10.0,Calm,Calm,-,N/A,,Mostly Cloudy,0,2013-09-26 00:51:00
9:51 PM,60.1,57.0,90,29.97,10.0,Calm,Calm,-,N/A,,Overcast,0,2013-09-26 01:51:00
10:51 PM,61.0,57.9,90,29.97,10.0,Variable,3.5,-,0.01,,Overcast,0,2013-09-26 02:51:00
11:42 PM,60.8,57.2,88,29.97,10.0,Calm,Calm,-,N/A,,Overcast,0,2013-09-26 03:42:00
11:51 PM,59.0,57.9,96,29.98,10.0,Calm,Calm,-,N/A,,Overcast,0,2013-09-26 03:51:00